createdAt,value
2018-07-23T00:01:08.664Z,16.70
2018-07-23T00:03:36.871Z,16.70
2018-07-23T00:06:05.087Z,16.60
2018-07-23T00:08:32.529Z,16.60
2018-07-23T00:11:00.758Z,16.60
2018-07-23T00:13:28.963Z,16.50
2018-07-23T00:15:57.185Z,16.50
2018-07-23T00:18:25.396Z,16.50
2018-07-23T00:20:53.630Z,16.40
2018-07-23T00:23:21.839Z,16.40
2018-07-23T00:25:50.079Z,16.40
2018-07-23T00:28:18.288Z,16.30
2018-07-23T00:30:46.505Z,16.30
2018-07-23T00:33:14.724Z,16.20
2018-07-23T00:35:42.940Z,16.20
2018-07-23T00:38:11.147Z,16.20
2018-07-23T00:40:39.364Z,16.20
2018-07-23T00:43:07.576Z,16.10
2018-07-23T00:45:35.793Z,16.00
2018-07-23T00:48:03.996Z,16.00
2018-07-23T00:50:32.217Z,16.00
2018-07-23T00:53:00.429Z,16.00
2018-07-23T00:55:28.669Z,15.90
2018-07-23T00:57:56.875Z,15.80
2018-07-23T01:00:25.522Z,15.80
2018-07-23T01:02:53.741Z,15.70
2018-07-23T01:05:21.964Z,15.70
2018-07-23T01:07:50.175Z,15.70
2018-07-23T01:10:17.633Z,15.70
2018-07-23T01:12:45.842Z,15.70
2018-07-23T01:15:14.072Z,15.70
2018-07-23T01:17:42.285Z,15.60
2018-07-23T01:20:10.513Z,15.60
2018-07-23T01:22:38.718Z,15.60
2018-07-23T01:25:06.958Z,15.60
2018-07-23T01:27:35.162Z,15.50
2018-07-23T01:30:02.611Z,15.50
2018-07-23T01:32:30.818Z,15.50
2018-07-23T01:34:58.272Z,15.50
2018-07-23T01:37:26.496Z,15.50
2018-07-23T01:39:54.708Z,15.50
2018-07-23T01:42:22.919Z,15.50
2018-07-23T01:44:51.136Z,15.40
2018-07-23T01:47:19.352Z,15.40
2018-07-23T01:49:46.796Z,15.40
2018-07-23T01:52:15.016Z,15.30
2018-07-23T01:54:43.227Z,15.30
2018-07-23T01:57:11.444Z,15.20
2018-07-23T01:59:38.889Z,15.20
2018-07-23T02:02:07.108Z,15.10
2018-07-23T02:04:35.315Z,15.10
2018-07-23T02:07:03.541Z,15.10
2018-07-23T02:09:31.743Z,15.20
2018-07-23T02:11:59.959Z,15.20
2018-07-23T02:14:28.174Z,15.10
2018-07-23T02:16:56.391Z,15.10
2018-07-23T02:19:24.616Z,15.10
2018-07-23T02:21:52.833Z,15.10
2018-07-23T02:24:21.037Z,15.10
2018-07-23T02:26:49.264Z,15.10
2018-07-23T02:29:17.471Z,15.00
2018-07-23T02:31:45.683Z,15.00
2018-07-23T02:34:13.893Z,15.00
2018-07-23T02:36:42.108Z,15.00
2018-07-23T02:39:10.334Z,14.90
2018-07-23T02:41:38.547Z,14.90
2018-07-23T02:44:06.761Z,14.90
2018-07-23T02:46:34.230Z,14.90
2018-07-23T02:49:02.448Z,14.80
2018-07-23T02:51:30.659Z,14.90
2018-07-23T02:53:58.874Z,14.80
2018-07-23T02:56:27.083Z,14.80
2018-07-23T02:58:55.299Z,14.70
2018-07-23T03:01:23.528Z,14.70
2018-07-23T03:03:51.744Z,14.70
2018-07-23T03:06:19.967Z,14.70
2018-07-23T03:08:48.180Z,14.70
2018-07-23T03:11:16.406Z,14.70
2018-07-23T03:13:44.611Z,14.60
2018-07-23T03:16:12.837Z,14.60
2018-07-23T03:18:41.038Z,14.60
2018-07-23T03:21:09.261Z,14.60
2018-07-23T03:23:37.467Z,14.60
2018-07-23T03:26:04.923Z,14.60
2018-07-23T03:28:33.136Z,14.50
2018-07-23T03:31:01.363Z,14.50
2018-07-23T03:33:29.574Z,14.50
2018-07-23T03:35:57.795Z,14.50
2018-07-23T03:38:26.011Z,14.40
2018-07-23T03:40:54.219Z,14.40
2018-07-23T03:43:22.493Z,14.40
2018-07-23T03:45:50.676Z,14.40
2018-07-23T03:48:18.891Z,14.40
2018-07-23T03:50:47.094Z,14.40
2018-07-23T03:53:15.315Z,14.40
2018-07-23T03:55:43.535Z,14.40
2018-07-23T03:58:11.750Z,14.30
2018-07-23T04:00:39.960Z,14.40
2018-07-23T04:03:08.185Z,14.40
2018-07-23T04:05:36.395Z,14.40
2018-07-23T04:08:04.615Z,14.40
2018-07-23T04:10:32.823Z,14.50
2018-07-23T04:13:01.041Z,14.60
2018-07-23T04:15:29.264Z,14.60
2018-07-23T04:17:57.479Z,14.70
2018-07-23T04:20:25.814Z,14.70
2018-07-23T04:22:54.032Z,14.80
2018-07-23T04:25:22.243Z,15.00
2018-07-23T04:27:50.460Z,15.10
2018-07-23T04:30:18.671Z,15.10
2018-07-23T04:32:46.891Z,15.20
2018-07-23T04:35:15.103Z,15.30
2018-07-23T04:37:43.320Z,15.40
2018-07-23T04:40:11.531Z,15.40
2018-07-23T04:42:39.750Z,15.50
2018-07-23T04:45:07.966Z,15.70
2018-07-23T04:47:36.187Z,15.70
2018-07-23T04:50:04.406Z,15.80
2018-07-23T04:52:32.633Z,15.90
2018-07-23T04:55:00.835Z,16.00
2018-07-23T04:57:29.055Z,16.10
2018-07-23T04:59:57.271Z,16.20
2018-07-23T05:02:25.490Z,16.30
2018-07-23T05:04:53.703Z,16.40
2018-07-23T05:07:21.922Z,16.50
2018-07-23T05:09:50.136Z,16.60
2018-07-23T05:12:18.357Z,16.70
2018-07-23T05:14:46.572Z,16.70
2018-07-23T05:17:14.792Z,16.80
2018-07-23T05:19:42.998Z,16.90
2018-07-23T05:22:11.225Z,17.10
2018-07-23T05:24:38.735Z,17.10
2018-07-23T05:27:06.898Z,17.30
2018-07-23T05:29:35.107Z,17.40
2018-07-23T05:32:03.316Z,17.50
2018-07-23T05:34:31.536Z,17.70
2018-07-23T05:36:59.751Z,17.80
2018-07-23T05:39:27.964Z,18.00
2018-07-23T05:41:56.176Z,18.10
2018-07-23T05:44:24.400Z,18.30
2018-07-23T05:46:52.616Z,18.40
2018-07-23T05:49:20.834Z,18.50
2018-07-23T05:51:49.040Z,18.40
2018-07-23T05:54:17.268Z,18.40
2018-07-23T05:56:45.487Z,18.40
2018-07-23T05:59:13.699Z,18.50
2018-07-23T06:01:41.911Z,18.70
2018-07-23T06:04:10.134Z,18.90
2018-07-23T06:06:38.364Z,19.00
2018-07-23T06:09:06.590Z,19.20
2018-07-23T06:11:34.791Z,19.50
2018-07-23T06:14:03.021Z,19.60
2018-07-23T06:16:31.227Z,19.90
2018-07-23T06:18:59.455Z,20.00
2018-07-23T06:21:27.673Z,20.10
2018-07-23T06:23:55.896Z,20.30
2018-07-23T06:26:24.103Z,20.40
2018-07-23T06:28:52.323Z,20.60
2018-07-23T06:31:20.547Z,20.80
2018-07-23T06:33:48.768Z,20.90
2018-07-23T06:36:16.974Z,21.00
2018-07-23T06:38:45.196Z,21.10
2018-07-23T06:41:13.414Z,21.20
2018-07-23T06:43:41.627Z,21.20
2018-07-23T06:46:09.835Z,21.30
2018-07-23T06:48:38.052Z,21.40
2018-07-23T06:51:06.259Z,21.50
2018-07-23T06:53:34.477Z,21.50
2018-07-23T06:56:02.692Z,21.50
2018-07-23T06:58:30.135Z,21.50
2018-07-23T07:00:58.351Z,21.60
2018-07-23T07:03:26.677Z,21.70
2018-07-23T07:05:54.883Z,21.80
2018-07-23T07:08:23.171Z,21.80
2018-07-23T07:10:51.411Z,21.90
2018-07-23T07:13:19.618Z,21.90
2018-07-23T07:15:47.844Z,22.00
2018-07-23T07:18:16.069Z,22.00
2018-07-23T07:20:44.283Z,22.10
2018-07-23T07:23:12.492Z,22.30
2018-07-23T07:25:40.714Z,22.40
2018-07-23T07:28:08.925Z,22.60
2018-07-23T07:30:37.139Z,22.80
2018-07-23T07:33:04.583Z,22.80
2018-07-23T07:35:32.801Z,23.10
2018-07-23T07:38:01.068Z,23.30
2018-07-23T07:40:29.250Z,23.50
2018-07-23T07:42:57.463Z,23.70
2018-07-23T07:45:25.695Z,23.90
2018-07-23T07:47:53.128Z,23.90
2018-07-23T07:50:21.350Z,24.30
2018-07-23T07:52:49.566Z,24.50
2018-07-23T07:55:17.784Z,24.70
2018-07-23T07:57:46.007Z,24.90
2018-07-23T08:00:14.232Z,25.10
2018-07-23T08:02:42.442Z,25.30
2018-07-23T08:05:10.668Z,25.50
2018-07-23T08:07:38.890Z,25.80
2018-07-23T08:10:07.112Z,25.90
2018-07-23T08:12:35.359Z,26.10
2018-07-23T08:15:03.547Z,26.30
2018-07-23T08:17:31.764Z,26.50
2018-07-23T08:19:59.983Z,26.80
2018-07-23T08:22:28.229Z,27.00
2018-07-23T08:24:56.437Z,27.10
2018-07-23T08:27:24.635Z,27.20
2018-07-23T08:29:52.856Z,27.30
2018-07-23T08:32:21.096Z,27.40
2018-07-23T08:34:49.267Z,27.50
2018-07-23T08:37:17.511Z,27.50
2018-07-23T08:39:45.675Z,27.40
2018-07-23T08:42:13.883Z,27.40
2018-07-23T08:44:42.104Z,27.40
2018-07-23T08:47:10.303Z,27.40
2018-07-23T08:49:38.516Z,27.50
2018-07-23T08:52:06.719Z,27.60
2018-07-23T08:54:34.936Z,27.50
2018-07-23T08:57:03.131Z,27.60
2018-07-23T08:59:31.352Z,27.80
2018-07-23T09:01:59.559Z,27.70
2018-07-23T09:04:27.768Z,27.60
2018-07-23T09:06:55.988Z,27.70
2018-07-23T09:09:24.192Z,27.70
2018-07-23T09:11:52.412Z,27.80
2018-07-23T09:14:20.606Z,27.90
2018-07-23T09:16:48.824Z,28.20
2018-07-23T09:19:17.029Z,28.40
2018-07-23T09:21:45.240Z,28.70
2018-07-23T09:24:13.448Z,28.80
2018-07-23T09:26:41.672Z,28.90
2018-07-23T09:29:09.875Z,28.90
2018-07-23T09:31:38.089Z,28.90
2018-07-23T09:34:06.300Z,28.90
2018-07-23T09:36:34.512Z,29.00
2018-07-23T09:39:02.729Z,29.10
2018-07-23T09:41:30.943Z,29.20
2018-07-23T09:43:59.147Z,29.20
2018-07-23T09:46:27.368Z,29.60
2018-07-23T09:48:55.578Z,29.70
2018-07-23T09:51:23.803Z,29.70
2018-07-23T09:53:52.015Z,29.70
2018-07-23T09:56:20.221Z,29.80
2018-07-23T09:58:48.420Z,29.40
2018-07-23T10:01:16.633Z,29.00
2018-07-23T10:03:44.076Z,29.00
2018-07-23T10:06:12.291Z,28.90
2018-07-23T10:08:40.516Z,28.80
2018-07-23T10:11:08.739Z,28.90
2018-07-23T10:13:36.940Z,28.90
2018-07-23T10:16:05.164Z,29.00
2018-07-23T10:18:33.376Z,29.10
2018-07-23T10:21:01.604Z,29.30
2018-07-23T10:23:29.807Z,29.30
2018-07-23T10:25:58.024Z,29.30
2018-07-23T10:28:26.236Z,29.00
2018-07-23T10:30:54.435Z,28.80
2018-07-23T10:33:22.640Z,28.70
2018-07-23T10:35:50.856Z,28.60
2018-07-23T10:38:19.063Z,28.60
2018-07-23T10:40:47.282Z,28.60
2018-07-23T10:43:15.507Z,28.70
2018-07-23T10:45:43.736Z,28.90
2018-07-23T10:48:11.944Z,29.00
2018-07-23T10:50:40.163Z,29.00
2018-07-23T10:53:08.370Z,29.10
2018-07-23T10:55:36.587Z,29.10
2018-07-23T10:58:04.019Z,29.20
2018-07-23T11:00:32.231Z,29.30
2018-07-23T11:03:00.447Z,29.30
2018-07-23T11:05:28.649Z,29.40
2018-07-23T11:07:56.860Z,29.30
2018-07-23T11:10:24.304Z,29.30
2018-07-23T11:12:52.511Z,29.20
2018-07-23T11:15:19.961Z,29.10
2018-07-23T11:17:47.404Z,29.10
2018-07-23T11:20:15.619Z,29.10
2018-07-23T11:22:43.834Z,29.30
2018-07-23T11:25:40.215Z,29.30
2018-07-23T11:27:39.506Z,29.40
2018-07-23T11:30:07.711Z,29.50
2018-07-23T11:32:35.920Z,29.70
2018-07-23T11:35:04.128Z,29.80
2018-07-23T11:37:32.339Z,29.90
2018-07-23T11:39:59.772Z,29.90
2018-07-23T11:42:27.978Z,29.90
2018-07-23T11:44:56.187Z,29.90
2018-07-23T11:47:24.395Z,30.00
2018-07-23T11:49:51.836Z,30.00
2018-07-23T11:52:20.047Z,30.00
2018-07-23T11:54:48.253Z,29.90
2018-07-23T11:57:15.692Z,30.00
2018-07-23T11:59:43.912Z,30.10
2018-07-23T12:02:12.131Z,30.20
2018-07-23T12:04:40.439Z,30.30
2018-07-23T12:07:08.575Z,30.30
2018-07-23T12:09:36.788Z,30.30
2018-07-23T12:12:05.008Z,30.30
2018-07-23T12:14:33.219Z,30.40
2018-07-23T12:17:01.427Z,30.50
2018-07-23T12:19:29.639Z,30.70
2018-07-23T12:21:57.868Z,30.60
2018-07-23T12:24:26.072Z,30.50
2018-07-23T12:26:54.332Z,30.60
2018-07-23T12:29:22.541Z,30.70
2018-07-23T12:31:50.761Z,30.70
2018-07-23T12:34:18.973Z,30.60
2018-07-23T12:36:47.186Z,30.80
2018-07-23T12:39:15.424Z,31.00
2018-07-23T12:41:43.627Z,31.10
2018-07-23T12:44:11.835Z,31.10
2018-07-23T12:46:40.067Z,31.20
2018-07-23T12:49:07.495Z,31.10
2018-07-23T12:51:35.718Z,31.00
2018-07-23T12:54:03.925Z,30.80
2018-07-23T12:56:32.133Z,30.80
2018-07-23T12:59:00.349Z,30.60
2018-07-23T13:01:28.555Z,30.60
2018-07-23T13:03:56.788Z,30.50
2018-07-23T13:06:25.000Z,30.50
2018-07-23T13:08:52.439Z,30.50
2018-07-23T13:11:20.652Z,30.60
2018-07-23T13:13:48.864Z,30.50
2018-07-23T13:16:17.068Z,30.60
2018-07-23T13:18:45.273Z,30.70
2018-07-23T13:21:13.479Z,30.80
2018-07-23T13:23:41.683Z,31.00
2018-07-23T13:26:09.900Z,31.20
2018-07-23T13:28:38.102Z,31.30
2018-07-23T13:31:06.316Z,31.50
2018-07-23T13:33:33.768Z,31.50
2018-07-23T13:36:01.976Z,31.70
2018-07-23T13:38:30.185Z,31.70
2018-07-23T13:40:58.390Z,31.90
2018-07-23T13:43:26.607Z,32.30
2018-07-23T13:45:54.817Z,32.40
2018-07-23T13:48:22.267Z,32.30
2018-07-23T13:50:50.476Z,32.10
2018-07-23T13:53:18.687Z,31.70
2018-07-23T13:55:46.899Z,31.60
2018-07-23T13:58:15.110Z,31.50
2018-07-23T14:00:43.315Z,31.50
2018-07-23T14:03:12.648Z,31.60
2018-07-23T14:05:40.849Z,31.80
2018-07-23T14:08:09.063Z,32.00
2018-07-23T14:10:37.275Z,32.00
2018-07-23T14:13:04.723Z,32.00
2018-07-23T14:15:32.921Z,32.60
2018-07-23T14:18:01.140Z,32.50
2018-07-23T14:20:29.348Z,32.30
2018-07-23T14:22:57.559Z,32.10
2018-07-23T14:25:25.776Z,32.10
2018-07-23T14:27:53.219Z,32.00
2018-07-23T14:30:21.494Z,32.00
2018-07-23T14:32:49.647Z,31.90
2018-07-23T14:35:17.870Z,31.90
2018-07-23T14:37:46.084Z,31.80
2018-07-23T14:40:14.291Z,31.70
2018-07-23T14:42:42.503Z,31.60
2018-07-23T14:45:10.707Z,31.60
2018-07-23T14:47:38.921Z,31.60
2018-07-23T14:50:07.136Z,31.80
2018-07-23T14:52:35.336Z,32.00
2018-07-23T14:55:03.551Z,32.00
2018-07-23T14:57:31.764Z,32.30
2018-07-23T15:00:00.010Z,32.30
2018-07-23T15:02:28.207Z,32.20
2018-07-23T15:04:56.420Z,32.00
2018-07-23T15:07:23.854Z,32.00
2018-07-23T15:09:52.069Z,31.40
2018-07-23T15:12:20.276Z,31.40
2018-07-23T15:14:48.487Z,31.40
2018-07-23T15:17:16.700Z,31.40
2018-07-23T15:19:44.151Z,31.40
2018-07-23T15:22:12.367Z,31.60
2018-07-23T15:24:40.583Z,31.60
2018-07-23T15:27:08.025Z,31.60
2018-07-23T15:29:36.240Z,31.50
2018-07-23T15:32:04.439Z,31.50
2018-07-23T15:34:32.651Z,31.40
2018-07-23T15:37:00.855Z,31.30
2018-07-23T15:39:29.067Z,31.30
2018-07-23T15:41:57.267Z,31.30
2018-07-23T15:44:25.614Z,31.30
2018-07-23T15:46:53.693Z,31.40
2018-07-23T15:49:21.907Z,31.40
2018-07-23T15:51:50.135Z,31.50
2018-07-23T15:54:18.338Z,31.60
2018-07-23T15:56:46.536Z,31.60
2018-07-23T15:59:14.755Z,31.60
2018-07-23T16:01:42.963Z,31.60
2018-07-23T16:04:11.175Z,31.50
2018-07-23T16:06:39.379Z,31.50
2018-07-23T16:09:06.830Z,31.50
2018-07-23T16:11:35.040Z,31.30
2018-07-23T16:14:02.479Z,31.30
2018-07-23T16:16:30.692Z,31.20
2018-07-23T16:18:58.944Z,31.20
2018-07-23T16:21:27.106Z,31.10
2018-07-23T16:23:55.319Z,31.10
2018-07-23T16:26:22.769Z,31.00
2018-07-23T16:28:50.995Z,30.90
2018-07-23T16:31:19.213Z,30.80
2018-07-23T16:33:47.419Z,30.60
2018-07-23T16:36:15.638Z,30.40
2018-07-23T16:38:43.844Z,30.40
2018-07-23T16:41:12.048Z,30.20
2018-07-23T16:43:40.255Z,30.00
2018-07-23T16:46:07.696Z,30.00
2018-07-23T16:48:35.908Z,29.90
2018-07-23T16:51:04.134Z,29.70
2018-07-23T16:53:32.334Z,29.50
2018-07-23T16:56:00.541Z,29.40
2018-07-23T16:58:27.979Z,29.40
2018-07-23T17:00:56.190Z,29.30
2018-07-23T17:03:24.430Z,29.30
2018-07-23T17:05:51.847Z,29.30
2018-07-23T17:08:19.294Z,29.20
2018-07-23T17:10:47.499Z,29.00
2018-07-23T17:13:15.711Z,29.00
2018-07-23T17:15:43.920Z,29.10
2018-07-23T17:18:12.271Z,29.30
2018-07-23T17:20:40.338Z,29.50
2018-07-23T17:23:08.539Z,29.60
2018-07-23T17:25:35.982Z,29.60
2018-07-23T17:28:03.427Z,29.60
2018-07-23T17:30:31.649Z,29.70
2018-07-23T17:32:59.853Z,29.90
2018-07-23T17:35:28.102Z,30.20
2018-07-23T17:37:56.275Z,30.70
2018-07-23T17:40:24.479Z,31.30
2018-07-23T17:42:52.891Z,31.60
2018-07-23T17:45:21.107Z,31.40
2018-07-23T17:47:48.584Z,31.40
2018-07-23T17:50:16.759Z,30.50
2018-07-23T17:52:44.961Z,30.20
2018-07-23T17:55:13.241Z,29.90
2018-07-23T17:57:41.383Z,29.70
2018-07-23T18:00:09.586Z,29.60
2018-07-23T18:02:37.803Z,30.20
2018-07-23T18:05:05.247Z,30.10
2018-07-23T18:07:33.457Z,32.20
2018-07-23T18:10:01.699Z,33.00
2018-07-23T18:12:29.879Z,33.50
2018-07-23T18:14:58.100Z,33.90
2018-07-23T18:17:26.309Z,34.10
2018-07-23T18:19:54.518Z,34.20
2018-07-23T18:22:22.728Z,34.20
2018-07-23T18:24:50.933Z,34.20
2018-07-23T18:27:18.375Z,34.20
2018-07-23T18:29:46.592Z,34.10
2018-07-23T18:32:14.808Z,34.00
2018-07-23T18:34:43.022Z,33.80
2018-07-23T18:37:11.243Z,33.60
2018-07-23T18:39:39.435Z,33.30
2018-07-23T18:42:07.835Z,32.50
2018-07-23T18:44:35.276Z,32.50
2018-07-23T18:47:02.728Z,31.50
2018-07-23T18:49:48.354Z,29.70
2018-07-23T18:52:16.572Z,28.90
2018-07-23T18:54:44.779Z,28.30
2018-07-23T18:57:12.999Z,27.70
2018-07-23T18:59:41.251Z,27.30
2018-07-23T19:02:09.608Z,26.80
2018-07-23T19:04:37.050Z,26.70
2018-07-23T19:07:06.175Z,26.10
2018-07-23T19:09:34.376Z,25.80
2018-07-23T19:12:02.599Z,25.60
2018-07-23T19:14:30.804Z,25.30
2018-07-23T19:16:59.055Z,25.20
2018-07-23T19:19:27.279Z,24.90
2018-07-23T19:21:55.483Z,24.80
2018-07-23T19:24:22.928Z,24.70
2018-07-23T19:26:51.151Z,24.40
2018-07-23T19:29:19.352Z,24.20
2018-07-23T19:31:47.559Z,24.10
2018-07-23T19:34:15.766Z,24.00
2018-07-23T19:36:43.970Z,23.90
2018-07-23T19:39:12.179Z,23.70
2018-07-23T19:41:40.464Z,23.60
2018-07-23T19:44:07.864Z,23.60
2018-07-23T19:46:36.076Z,23.30
2018-07-23T19:49:05.391Z,23.10
2018-07-23T19:51:33.602Z,22.90
2018-07-23T19:54:01.818Z,22.80
2018-07-23T19:56:30.023Z,22.70
2018-07-23T19:58:58.231Z,22.50
2018-07-23T20:01:26.448Z,22.40
2018-07-23T20:03:54.641Z,22.30
2018-07-23T20:06:22.093Z,22.30
2018-07-23T20:08:50.296Z,22.20
2018-07-23T20:11:18.557Z,22.10
2018-07-23T20:13:46.716Z,22.00
2018-07-23T20:16:14.919Z,21.90
2018-07-23T20:18:43.126Z,21.90
2018-07-23T20:21:11.398Z,21.80
2018-07-23T20:23:38.832Z,21.80
2018-07-23T20:26:07.047Z,21.70
2018-07-23T20:28:35.264Z,21.60
2018-07-23T20:31:03.479Z,21.60
2018-07-23T20:33:30.927Z,21.50
2018-07-23T20:35:59.133Z,21.40
2018-07-23T20:38:27.341Z,21.30
2018-07-23T20:40:55.556Z,21.30
2018-07-23T20:43:23.789Z,21.20
2018-07-23T20:45:52.035Z,21.10
2018-07-23T20:48:19.442Z,21.10
2018-07-23T20:50:47.655Z,21.00
2018-07-23T20:53:15.863Z,21.00
2018-07-23T20:55:44.078Z,20.90
2018-07-23T20:58:12.284Z,20.90
2018-07-23T21:00:40.493Z,20.80
2018-07-23T21:03:08.699Z,20.70
2018-07-23T21:05:36.910Z,20.70
2018-07-23T21:08:05.160Z,20.60
2018-07-23T21:10:33.352Z,20.50
2018-07-23T21:13:01.564Z,20.50
2018-07-23T21:15:29.771Z,20.50
2018-07-23T21:17:57.987Z,20.40
2018-07-23T21:20:26.213Z,20.30
2018-07-23T21:22:54.423Z,20.30
2018-07-23T21:25:22.638Z,20.20
2018-07-23T21:27:50.910Z,20.20
2018-07-23T21:30:18.299Z,20.10
2018-07-23T21:32:46.506Z,20.00
2018-07-23T21:35:14.725Z,19.90
2018-07-23T21:37:42.943Z,19.90
2018-07-23T21:40:11.163Z,19.90
2018-07-23T21:42:39.387Z,19.80
2018-07-23T21:45:07.588Z,19.80
2018-07-23T21:47:35.811Z,19.70
2018-07-23T21:50:04.027Z,19.70
2018-07-23T21:52:32.250Z,19.60
2018-07-23T21:55:00.465Z,19.60
2018-07-23T21:57:28.683Z,19.50
2018-07-23T21:59:56.129Z,19.50
2018-07-23T22:02:24.344Z,19.50
2018-07-23T22:04:52.558Z,19.50
2018-07-23T22:07:20.784Z,19.40
2018-07-23T22:09:48.235Z,19.40
2018-07-23T22:12:16.440Z,19.20
2018-07-23T22:14:44.657Z,19.20
2018-07-23T22:17:12.887Z,19.10
2018-07-23T22:19:41.109Z,19.10
2018-07-23T22:22:09.320Z,19.10
2018-07-23T22:24:37.532Z,19.00
2018-07-23T22:27:04.980Z,19.00
2018-07-23T22:29:33.195Z,19.00
2018-07-23T22:32:01.404Z,19.00
2018-07-23T22:34:29.624Z,18.90
2018-07-23T22:36:57.831Z,18.90
2018-07-23T22:39:26.048Z,18.80
2018-07-23T22:41:54.260Z,18.80
2018-07-23T22:44:22.476Z,18.80
2018-07-23T22:46:50.689Z,18.70
2018-07-23T22:49:18.907Z,18.70
2018-07-23T22:51:47.115Z,18.70
2018-07-23T22:54:14.559Z,18.60
2018-07-23T22:56:42.768Z,18.60
2018-07-23T22:59:10.987Z,18.50
2018-07-23T23:01:39.207Z,18.40
2018-07-23T23:04:07.422Z,18.40
2018-07-23T23:06:35.851Z,18.40
2018-07-23T23:09:04.076Z,18.40
2018-07-23T23:11:32.283Z,18.30
2018-07-23T23:14:00.507Z,18.30
2018-07-23T23:16:28.715Z,18.30
2018-07-23T23:18:56.936Z,18.30
2018-07-23T23:21:25.151Z,18.30
2018-07-23T23:23:52.611Z,18.20
2018-07-23T23:26:20.052Z,18.20
2018-07-23T23:28:48.263Z,18.10
2018-07-23T23:31:16.478Z,18.10
2018-07-23T23:33:44.699Z,18.10
2018-07-23T23:36:12.899Z,18.00
2018-07-23T23:38:41.115Z,17.90
2018-07-23T23:41:09.335Z,17.90
2018-07-23T23:43:37.547Z,17.90
2018-07-23T23:46:05.775Z,17.90
2018-07-23T23:48:33.986Z,17.80
2018-07-23T23:51:02.203Z,17.80
2018-07-23T23:53:30.418Z,17.80
2018-07-23T23:55:58.647Z,17.80
2018-07-23T23:58:26.845Z,17.70
